createdAt,value
2018-08-12T00:00:13.252Z,13.60
2018-08-12T00:02:41.971Z,13.50
2018-08-12T00:05:10.718Z,13.40
2018-08-12T00:07:39.520Z,13.40
2018-08-12T00:10:09.811Z,13.30
2018-08-12T00:12:38.521Z,13.30
2018-08-12T00:15:09.163Z,13.30
2018-08-12T00:17:37.917Z,13.30
2018-08-12T00:20:08.441Z,13.30
2018-08-12T00:22:37.191Z,13.30
2018-08-12T00:25:08.793Z,13.20
2018-08-12T00:27:37.543Z,13.20
2018-08-12T00:30:07.305Z,13.20
2018-08-12T00:32:35.977Z,13.10
2018-08-12T00:35:05.995Z,13.10
2018-08-12T00:37:34.689Z,13.10
2018-08-12T00:40:03.410Z,13.10
2018-08-12T00:42:32.179Z,13.10
2018-08-12T00:45:00.820Z,13.00
2018-08-12T00:47:29.571Z,13.00
2018-08-12T00:49:58.206Z,12.90
2018-08-12T00:52:26.907Z,12.90
2018-08-12T00:54:55.637Z,12.90
2018-08-12T00:57:24.414Z,12.90
2018-08-12T00:59:53.047Z,12.90
2018-08-12T01:02:21.749Z,12.90
2018-08-12T01:04:50.410Z,12.90
2018-08-12T01:07:19.194Z,12.90
2018-08-12T01:09:47.906Z,12.90
2018-08-12T01:12:16.565Z,12.90
2018-08-12T01:14:45.293Z,12.90
2018-08-12T01:17:14.055Z,12.90
2018-08-12T01:19:42.792Z,12.90
2018-08-12T01:22:11.540Z,12.90
2018-08-12T01:24:40.258Z,12.80
2018-08-12T01:27:08.891Z,12.80
2018-08-12T01:29:37.606Z,12.70
2018-08-12T01:32:06.365Z,12.60
2018-08-12T01:34:35.056Z,12.60
2018-08-12T01:37:04.575Z,12.60
2018-08-12T01:39:33.251Z,12.70
2018-08-12T01:42:01.917Z,12.60
2018-08-12T01:44:30.569Z,12.60
2018-08-12T01:46:59.218Z,12.50
2018-08-12T01:49:27.877Z,12.50
2018-08-12T01:51:56.590Z,12.50
2018-08-12T01:54:25.261Z,12.50
2018-08-12T01:56:53.924Z,12.50
2018-08-12T01:59:22.726Z,12.50
2018-08-12T02:01:51.453Z,12.40
2018-08-12T02:04:20.454Z,12.30
2018-08-12T02:06:49.178Z,12.10
2018-08-12T02:09:17.790Z,12.10
2018-08-12T02:11:46.406Z,12.00
2018-08-12T02:14:15.125Z,12.00
2018-08-12T02:16:43.840Z,12.00
2018-08-12T02:19:12.601Z,12.00
2018-08-12T02:21:41.313Z,12.10
2018-08-12T02:24:10.030Z,12.10
2018-08-12T02:26:38.636Z,12.10
2018-08-12T02:29:07.402Z,12.20
2018-08-12T02:31:36.021Z,12.20
2018-08-12T02:34:04.760Z,12.20
2018-08-12T02:36:33.470Z,12.20
2018-08-12T02:39:02.175Z,12.20
2018-08-12T02:41:30.879Z,12.10
2018-08-12T02:43:59.559Z,11.90
2018-08-12T02:46:28.185Z,11.90
2018-08-12T02:48:56.834Z,11.80
2018-08-12T02:51:25.494Z,11.80
2018-08-12T02:53:54.231Z,11.70
2018-08-12T02:56:22.940Z,11.80
2018-08-12T02:58:51.562Z,11.70
2018-08-12T03:01:20.245Z,11.70
2018-08-12T03:03:48.952Z,11.60
2018-08-12T03:06:17.608Z,11.60
2018-08-12T03:08:46.407Z,11.60
2018-08-12T03:11:15.215Z,11.60
2018-08-12T03:13:43.984Z,11.60
2018-08-12T03:16:12.735Z,11.60
2018-08-12T03:18:41.461Z,11.60
2018-08-12T03:21:10.111Z,11.60
2018-08-12T03:23:38.852Z,11.60
2018-08-12T03:26:07.508Z,11.60
2018-08-12T03:28:36.170Z,11.70
2018-08-12T03:31:04.963Z,11.70
2018-08-12T03:33:33.668Z,11.70
2018-08-12T03:36:02.563Z,11.70
2018-08-12T03:38:31.299Z,11.70
2018-08-12T03:41:00.110Z,11.70
2018-08-12T03:43:28.837Z,11.70
2018-08-12T03:45:57.505Z,11.70
2018-08-12T03:48:26.204Z,11.70
2018-08-12T03:50:54.866Z,11.60
2018-08-12T03:53:23.602Z,11.60
2018-08-12T03:55:52.706Z,11.60
2018-08-12T03:58:21.368Z,11.60
2018-08-12T04:00:50.068Z,11.50
2018-08-12T04:03:18.693Z,11.50
2018-08-12T04:05:47.383Z,11.50
2018-08-12T04:08:16.079Z,11.40
2018-08-12T04:10:44.849Z,11.30
2018-08-12T04:13:13.521Z,11.30
2018-08-12T04:15:42.192Z,11.30
2018-08-12T04:18:10.923Z,11.20
2018-08-12T04:20:39.580Z,11.10
2018-08-12T04:23:08.277Z,11.10
2018-08-12T04:25:36.941Z,11.00
2018-08-12T04:28:05.574Z,10.90
2018-08-12T04:30:34.277Z,10.90
2018-08-12T04:33:02.994Z,10.80
2018-08-12T04:35:31.765Z,10.70
2018-08-12T04:38:00.506Z,10.70
2018-08-12T04:40:29.366Z,10.70
2018-08-12T04:42:58.118Z,10.70
2018-08-12T04:45:26.830Z,10.70
2018-08-12T04:47:55.518Z,10.70
2018-08-12T04:50:24.294Z,10.70
2018-08-12T04:52:52.991Z,10.80
2018-08-12T04:55:21.685Z,10.80
2018-08-12T04:57:50.453Z,10.90
2018-08-12T05:00:19.137Z,10.90
2018-08-12T05:02:47.862Z,11.00
2018-08-12T05:05:16.493Z,11.10
2018-08-12T05:07:45.214Z,11.10
2018-08-12T05:10:13.992Z,11.10
2018-08-12T05:12:42.686Z,11.20
2018-08-12T05:15:11.349Z,11.20
2018-08-12T05:17:40.573Z,11.20
2018-08-12T05:20:09.873Z,11.30
2018-08-12T05:22:38.899Z,11.40
2018-08-12T05:25:07.862Z,11.40
2018-08-12T05:27:36.831Z,11.50
2018-08-12T05:30:06.848Z,11.60
2018-08-12T05:32:35.582Z,11.70
2018-08-12T05:35:05.038Z,11.70
2018-08-12T05:37:33.709Z,11.80
2018-08-12T05:40:02.378Z,11.90
2018-08-12T05:42:31.418Z,12.00
2018-08-12T05:45:00.122Z,12.10
2018-08-12T05:47:28.786Z,12.20
2018-08-12T05:49:57.472Z,12.30
2018-08-12T05:52:26.122Z,12.40
2018-08-12T05:54:54.788Z,12.40
2018-08-12T05:57:23.565Z,12.50
2018-08-12T05:59:52.278Z,12.60
2018-08-12T06:02:20.901Z,12.80
2018-08-12T06:04:49.541Z,12.90
2018-08-12T06:07:18.329Z,13.00
2018-08-12T06:09:47.036Z,13.10
2018-08-12T06:12:16.918Z,13.30
2018-08-12T06:14:45.646Z,13.50
2018-08-12T06:17:14.293Z,13.60
2018-08-12T06:19:42.941Z,13.70
2018-08-12T06:22:11.681Z,13.90
2018-08-12T06:24:40.360Z,14.00
2018-08-12T06:27:09.037Z,14.20
2018-08-12T06:29:37.749Z,14.40
2018-08-12T06:32:06.439Z,14.50
2018-08-12T06:34:35.214Z,14.70
2018-08-12T06:37:03.974Z,14.80
2018-08-12T06:39:32.709Z,15.00
2018-08-12T06:42:01.470Z,15.10
2018-08-12T06:44:30.214Z,15.20
2018-08-12T06:46:58.953Z,15.30
2018-08-12T06:49:27.630Z,15.50
2018-08-12T06:51:56.344Z,15.60
2018-08-12T06:54:24.998Z,15.70
2018-08-12T06:56:53.746Z,15.80
2018-08-12T06:59:22.462Z,16.10
2018-08-12T07:01:51.127Z,16.30
2018-08-12T07:04:19.933Z,16.50
2018-08-12T07:06:48.650Z,16.70
2018-08-12T07:09:17.464Z,17.00
2018-08-12T07:11:46.168Z,17.20
2018-08-12T07:14:16.233Z,17.50
2018-08-12T07:16:45.214Z,17.80
2018-08-12T07:19:13.950Z,18.10
2018-08-12T07:21:42.619Z,18.40
2018-08-12T07:24:11.301Z,18.60
2018-08-12T07:26:40.258Z,18.80
2018-08-12T07:29:09.169Z,19.20
2018-08-12T07:31:37.985Z,19.50
2018-08-12T07:34:07.031Z,19.70
2018-08-12T07:36:35.698Z,20.00
2018-08-12T07:39:06.037Z,20.20
2018-08-12T07:41:34.834Z,20.50
2018-08-12T07:44:03.660Z,20.80
2018-08-12T07:46:32.570Z,21.10
2018-08-12T07:49:01.343Z,21.30
2018-08-12T07:51:30.086Z,21.40
2018-08-12T07:53:58.701Z,21.60
2018-08-12T07:56:27.564Z,21.80
2018-08-12T07:58:56.342Z,22.00
2018-08-12T08:01:25.131Z,22.20
2018-08-12T08:03:53.973Z,22.50
2018-08-12T08:06:22.747Z,22.50
2018-08-12T08:08:51.566Z,22.60
2018-08-12T08:11:20.573Z,22.80
2018-08-12T08:13:49.244Z,23.00
2018-08-12T08:16:18.082Z,23.20
2018-08-12T08:18:46.895Z,23.30
2018-08-12T08:21:15.699Z,23.60
2018-08-12T08:23:44.550Z,23.90
2018-08-12T08:26:13.287Z,24.30
2018-08-12T08:28:41.933Z,24.50
2018-08-12T08:31:10.638Z,24.60
2018-08-12T08:33:41.126Z,24.70
2018-08-12T08:36:09.944Z,25.00
2018-08-12T08:38:42.551Z,25.20
2018-08-12T08:41:11.229Z,25.20
2018-08-12T08:43:40.005Z,25.10
2018-08-12T08:46:08.729Z,25.20
2018-08-12T08:48:37.821Z,25.40
2018-08-12T08:51:06.497Z,25.80
2018-08-12T08:53:35.125Z,26.30
2018-08-12T08:56:03.893Z,27.00
2018-08-12T08:58:32.573Z,27.80
2018-08-12T09:01:01.275Z,28.40
2018-08-12T09:03:30.273Z,28.60
2018-08-12T09:05:59.089Z,28.60
2018-08-12T09:08:27.982Z,28.90
2018-08-12T09:10:56.432Z,29.50
2018-08-12T09:13:25.038Z,29.70
2018-08-12T09:15:54.123Z,29.50
2018-08-12T09:18:22.759Z,29.50
2018-08-12T09:20:51.389Z,29.70
2018-08-12T09:23:20.393Z,30.10
2018-08-12T09:25:49.050Z,30.20
2018-08-12T09:28:17.795Z,30.40
2018-08-12T09:30:46.581Z,30.90
2018-08-12T09:33:15.829Z,30.90
2018-08-12T09:35:45.637Z,31.10
2018-08-12T09:38:14.845Z,31.50
2018-08-12T09:40:43.965Z,31.50
2018-08-12T09:43:13.344Z,31.50
2018-08-12T09:45:42.893Z,31.80
2018-08-12T09:48:12.130Z,32.20
2018-08-12T09:50:42.406Z,31.70
2018-08-12T09:53:11.316Z,31.60
2018-08-12T09:55:40.578Z,31.80
2018-08-12T09:58:09.525Z,32.10
2018-08-12T10:00:40.284Z,32.20
2018-08-12T10:03:11.874Z,32.30
2018-08-12T10:05:40.977Z,32.80
2018-08-12T10:08:09.742Z,32.50
2018-08-12T10:10:38.417Z,32.60
2018-08-12T10:13:07.602Z,33.00
2018-08-12T10:15:36.668Z,33.30
2018-08-12T10:18:06.045Z,33.60
2018-08-12T10:20:40.020Z,33.20
2018-08-12T10:23:08.785Z,33.50
2018-08-12T10:25:37.526Z,33.40
2018-08-12T10:28:06.251Z,33.20
2018-08-12T10:30:35.081Z,33.50
2018-08-12T10:33:03.865Z,34.00
2018-08-12T10:35:32.510Z,34.50
2018-08-12T10:38:01.551Z,34.80
2018-08-12T10:40:30.447Z,34.20
2018-08-12T10:42:59.105Z,33.50
2018-08-12T10:45:27.722Z,32.60
2018-08-12T10:47:56.525Z,32.50
2018-08-12T10:50:26.009Z,32.40
2018-08-12T10:52:55.210Z,33.00
2018-08-12T10:55:24.817Z,33.60
2018-08-12T10:57:53.593Z,34.40
2018-08-12T11:00:26.998Z,34.60
2018-08-12T11:02:56.149Z,34.90
2018-08-12T11:05:25.923Z,35.30
2018-08-12T11:07:57.494Z,35.70
2018-08-12T11:10:28.135Z,35.90
2018-08-12T11:12:56.782Z,36.20
2018-08-12T11:15:26.352Z,36.00
2018-08-12T11:17:55.562Z,35.70
2018-08-12T11:20:24.616Z,35.10
2018-08-12T11:22:53.436Z,34.70
2018-08-12T11:25:22.390Z,34.50
2018-08-12T11:27:51.354Z,34.40
2018-08-12T11:30:20.068Z,33.80
2018-08-12T11:32:49.130Z,33.00
2018-08-12T11:35:18.326Z,32.50
2018-08-12T11:37:47.061Z,32.00
2018-08-12T11:40:16.346Z,31.80
2018-08-12T11:42:45.206Z,32.30
2018-08-12T11:45:15.318Z,32.80
2018-08-12T11:47:46.246Z,33.40
2018-08-12T11:50:15.418Z,34.10
2018-08-12T11:52:45.261Z,34.90
2018-08-12T11:55:15.826Z,35.40
2018-08-12T11:57:47.152Z,35.30
2018-08-12T12:00:17.767Z,33.90
2018-08-12T12:02:51.441Z,32.90
2018-08-12T12:05:38.426Z,33.10
2018-08-12T12:08:07.367Z,33.70
2018-08-12T12:10:35.976Z,34.30
2018-08-12T12:13:04.740Z,34.70
2018-08-12T12:15:34.191Z,35.20
2018-08-12T12:18:03.002Z,35.90
2018-08-12T12:20:32.908Z,36.00
2018-08-12T12:23:01.646Z,36.30
2018-08-12T12:25:30.281Z,36.60
2018-08-12T12:27:58.961Z,36.90
2018-08-12T12:30:27.589Z,37.00
2018-08-12T12:32:56.264Z,37.10
2018-08-12T12:35:25.258Z,37.10
2018-08-12T12:37:53.920Z,36.90
2018-08-12T12:40:22.661Z,37.10
2018-08-12T12:42:53.522Z,37.30
2018-08-12T12:45:22.482Z,37.40
2018-08-12T12:47:51.346Z,37.60
2018-08-12T12:50:22.047Z,37.40
2018-08-12T12:52:51.833Z,37.20
2018-08-12T12:55:21.441Z,36.80
2018-08-12T12:57:50.161Z,36.90
2018-08-12T13:00:20.115Z,37.20
2018-08-12T13:02:49.303Z,37.60
2018-08-12T13:05:19.157Z,37.80
2018-08-12T13:07:48.621Z,37.90
2018-08-12T13:10:18.110Z,38.00
2018-08-12T13:12:47.141Z,37.90
2018-08-12T13:15:16.623Z,38.40
2018-08-12T13:17:45.310Z,39.20
2018-08-12T13:20:16.476Z,39.70
2018-08-12T13:22:47.430Z,39.20
2018-08-12T13:25:20.157Z,39.80
2018-08-12T13:27:49.162Z,41.00
2018-08-12T13:30:31.180Z,42.10
2018-08-12T13:32:59.829Z,42.50
2018-08-12T13:35:28.634Z,41.60
2018-08-12T13:37:57.243Z,41.40
2018-08-12T13:40:25.978Z,40.60
2018-08-12T13:42:54.640Z,41.80
2018-08-12T13:45:23.295Z,42.30
2018-08-12T13:47:53.231Z,42.40
2018-08-12T13:50:23.560Z,42.70
2018-08-12T13:52:52.961Z,42.20
2018-08-12T13:55:22.405Z,41.60
2018-08-12T13:57:51.837Z,42.00
2018-08-12T14:00:22.710Z,43.20
2018-08-12T14:02:51.562Z,44.90
2018-08-12T14:05:20.578Z,46.50
2018-08-12T14:07:49.663Z,47.60
2018-08-12T14:10:18.370Z,48.30
2018-08-12T14:12:47.241Z,48.70
2018-08-12T14:15:17.716Z,47.80
2018-08-12T14:17:47.489Z,47.30
2018-08-12T14:20:17.880Z,48.10
2018-08-12T14:22:46.517Z,48.70
2018-08-12T14:25:16.085Z,49.60
2018-08-12T14:27:45.697Z,49.40
2018-08-12T14:30:17.089Z,46.90
2018-08-12T14:32:46.831Z,46.70
2018-08-12T14:35:15.493Z,47.40
2018-08-12T14:37:44.791Z,48.50
2018-08-12T14:40:14.458Z,49.20
2018-08-12T14:42:43.669Z,49.90
2018-08-12T14:45:14.622Z,50.30
2018-08-12T14:47:45.073Z,50.30
2018-08-12T14:50:16.674Z,50.50
2018-08-12T14:52:45.619Z,50.00
2018-08-12T14:55:15.369Z,49.00
2018-08-12T14:57:45.028Z,48.10
2018-08-12T15:00:16.330Z,47.40
2018-08-12T15:02:46.678Z,45.00
2018-08-12T15:05:15.579Z,42.80
2018-08-12T15:07:44.238Z,41.60
2018-08-12T15:10:13.570Z,42.10
2018-08-12T15:12:43.410Z,43.40
2018-08-12T15:15:13.689Z,44.20
2018-08-12T15:17:43.313Z,44.80
2018-08-12T15:20:12.823Z,45.30
2018-08-12T15:22:42.918Z,45.70
2018-08-12T15:25:17.462Z,45.80
2018-08-12T15:27:46.427Z,45.80
2018-08-12T15:30:15.263Z,46.10
2018-08-12T15:32:45.644Z,46.20
2018-08-12T15:35:14.544Z,46.10
2018-08-12T15:37:43.737Z,46.30
2018-08-12T15:40:14.269Z,46.70
2018-08-12T15:42:43.500Z,47.40
2018-08-12T15:45:14.250Z,47.50
2018-08-12T15:47:43.763Z,47.10
2018-08-12T15:50:13.011Z,47.50
2018-08-12T15:52:43.596Z,48.00
2018-08-12T15:55:12.654Z,48.60
2018-08-12T15:57:41.325Z,48.90
2018-08-12T16:00:14.789Z,48.80
2018-08-12T16:02:46.279Z,48.70
2018-08-12T16:05:14.927Z,48.20
2018-08-12T16:07:44.933Z,46.10
2018-08-12T16:10:17.259Z,44.90
2018-08-12T16:12:47.722Z,45.10
2018-08-12T16:15:16.435Z,45.90
2018-08-12T16:17:45.106Z,45.50
2018-08-12T16:20:20.061Z,45.40
2018-08-12T16:22:49.037Z,44.70
2018-08-12T16:25:19.390Z,44.90
2018-08-12T16:27:51.091Z,45.30
2018-08-12T16:30:20.588Z,46.00
2018-08-12T16:32:49.369Z,46.40
2018-08-12T16:35:18.500Z,46.70
2018-08-12T16:37:48.080Z,46.80
2018-08-12T16:40:18.210Z,46.50
2018-08-12T16:42:47.441Z,45.20
2018-08-12T16:45:17.261Z,44.50
2018-08-12T16:47:46.585Z,44.70
2018-08-12T16:50:15.513Z,44.70
2018-08-12T16:52:45.188Z,45.00
2018-08-12T16:55:15.718Z,45.00
2018-08-12T16:57:45.379Z,45.00
2018-08-12T17:00:18.864Z,44.90
2018-08-12T17:02:47.988Z,44.80
2018-08-12T17:05:17.904Z,44.90
2018-08-12T17:07:47.246Z,44.70
2018-08-12T17:10:17.058Z,44.40
2018-08-12T17:12:45.942Z,44.20
2018-08-12T17:15:16.841Z,43.80
2018-08-12T17:17:46.138Z,43.30
2018-08-12T17:20:16.581Z,42.70
2018-08-12T17:22:45.973Z,42.10
2018-08-12T17:25:15.312Z,41.60
2018-08-12T17:27:44.596Z,41.40
2018-08-12T17:30:15.065Z,41.00
2018-08-12T17:32:43.906Z,40.70
2018-08-12T17:35:12.713Z,40.50
2018-08-12T17:37:42.289Z,40.40
2018-08-12T17:40:13.541Z,40.10
2018-08-12T17:42:42.706Z,39.90
2018-08-12T17:45:12.850Z,39.80
2018-08-12T17:47:41.967Z,38.90
2018-08-12T17:50:13.469Z,37.90
2018-08-12T17:52:42.785Z,36.80
2018-08-12T17:55:11.981Z,35.80
2018-08-12T17:57:40.701Z,35.40
2018-08-12T18:00:11.497Z,35.00
2018-08-12T18:02:40.562Z,34.50
2018-08-12T18:05:09.686Z,33.80
2018-08-12T18:07:39.469Z,33.50
2018-08-12T18:10:08.137Z,33.00
2018-08-12T18:12:37.605Z,32.20
2018-08-12T18:15:20.228Z,31.50
2018-08-12T18:17:48.934Z,30.80
2018-08-12T18:20:17.577Z,30.30
2018-08-12T18:22:46.184Z,30.10
2018-08-12T18:25:15.437Z,29.90
2018-08-12T18:27:44.043Z,29.70
2018-08-12T18:30:14.075Z,29.50
2018-08-12T18:32:42.838Z,29.30
2018-08-12T18:35:12.250Z,29.00
2018-08-12T18:37:41.192Z,28.70
2018-08-12T18:40:10.875Z,28.40
2018-08-12T18:42:39.813Z,28.10
2018-08-12T18:45:08.615Z,28.00
2018-08-12T18:47:37.362Z,27.60
2018-08-12T18:50:07.653Z,27.30
2018-08-12T18:52:36.359Z,27.10
2018-08-12T18:55:06.662Z,26.80
2018-08-12T18:57:35.357Z,26.70
2018-08-12T19:00:04.253Z,26.50
2018-08-12T19:02:32.950Z,26.40
2018-08-12T19:05:01.625Z,26.30
2018-08-12T19:07:30.282Z,26.20
2018-08-12T19:10:00.207Z,26.00
2018-08-12T19:12:28.921Z,25.70
2018-08-12T19:14:57.734Z,25.40
2018-08-12T19:17:26.346Z,25.30
2018-08-12T19:20:07.614Z,25.10
2018-08-12T19:22:36.950Z,25.10
2018-08-12T19:25:06.279Z,25.00
2018-08-12T19:27:35.274Z,24.80
2018-08-12T19:30:08.277Z,24.70
2018-08-12T19:32:37.743Z,24.50
2018-08-12T19:35:06.807Z,24.40
2018-08-12T19:37:35.493Z,24.30
2018-08-12T19:40:04.921Z,24.10
2018-08-12T19:42:33.381Z,24.00
2018-08-12T19:45:02.025Z,23.90
2018-08-12T19:47:31.198Z,23.80
2018-08-12T19:50:00.134Z,23.60
2018-08-12T19:52:29.432Z,23.50
2018-08-12T19:54:59.897Z,23.40
2018-08-12T19:57:29.358Z,23.20
2018-08-12T19:59:58.575Z,23.10
2018-08-12T20:02:28.190Z,22.90
2018-08-12T20:04:57.633Z,22.70
2018-08-12T20:07:27.360Z,22.60
2018-08-12T20:09:56.804Z,22.50
2018-08-12T20:12:26.436Z,22.40
2018-08-12T20:14:56.243Z,22.30
2018-08-12T20:17:25.064Z,22.10
2018-08-12T20:19:54.624Z,22.00
2018-08-12T20:22:23.591Z,21.90
2018-08-12T20:24:52.581Z,21.70
2018-08-12T20:27:21.324Z,21.60
2018-08-12T20:29:50.085Z,21.60
2018-08-12T20:32:18.759Z,21.50
2018-08-12T20:34:47.664Z,21.50
2018-08-12T20:37:16.364Z,21.30
2018-08-12T20:39:46.575Z,21.20
2018-08-12T20:42:15.283Z,21.10
2018-08-12T20:44:51.370Z,21.10
2018-08-12T20:47:20.317Z,21.00
2018-08-12T20:49:50.087Z,20.90
2018-08-12T20:52:20.997Z,20.80
2018-08-12T20:54:49.723Z,20.70
2018-08-12T20:57:19.925Z,20.70
2018-08-12T20:59:48.561Z,20.60
2018-08-12T21:02:20.410Z,20.50
2018-08-12T21:04:49.077Z,20.40
2018-08-12T21:07:17.730Z,20.40
2018-08-12T21:09:46.413Z,20.30
2018-08-12T21:12:15.509Z,20.30
2018-08-12T21:14:44.136Z,20.20
2018-08-12T21:17:12.789Z,20.20
2018-08-12T21:19:41.457Z,20.10
2018-08-12T21:22:12.170Z,20.10
2018-08-12T21:24:40.869Z,20.00
2018-08-12T21:27:09.583Z,19.90
2018-08-12T21:29:50.520Z,19.80
2018-08-12T21:32:19.396Z,19.70
2018-08-12T21:34:48.277Z,19.60
2018-08-12T21:37:16.922Z,19.60
2018-08-12T21:39:47.753Z,19.50
2018-08-12T21:42:17.542Z,19.50
2018-08-12T21:44:46.879Z,19.50
2018-08-12T21:47:19.664Z,19.40
2018-08-12T21:49:49.122Z,19.40
2018-08-12T21:52:18.291Z,19.30
2018-08-12T21:54:47.787Z,19.30
2018-08-12T21:57:16.905Z,19.20
2018-08-12T21:59:45.577Z,19.20
2018-08-12T22:02:14.674Z,19.10
2018-08-12T22:04:43.624Z,19.00
2018-08-12T22:07:12.576Z,19.00
2018-08-12T22:09:41.800Z,18.90
2018-08-12T22:12:10.610Z,18.90
2018-08-12T22:14:39.334Z,18.80
2018-08-12T22:17:08.281Z,18.70
2018-08-12T22:19:36.970Z,18.70
2018-08-12T22:22:05.619Z,18.60
2018-08-12T22:24:34.437Z,18.60
2018-08-12T22:27:03.078Z,18.50
2018-08-12T22:29:31.965Z,18.50
2018-08-12T22:32:00.685Z,18.40
2018-08-12T22:34:29.609Z,18.40
2018-08-12T22:36:58.328Z,18.40
2018-08-12T22:39:27.243Z,18.30
2018-08-12T22:41:55.922Z,18.30
2018-08-12T22:44:24.644Z,18.30
2018-08-12T22:46:53.430Z,18.20
2018-08-12T22:49:22.077Z,18.20
2018-08-12T22:51:50.728Z,18.20
2018-08-12T22:54:19.441Z,18.20
2018-08-12T22:56:48.465Z,18.10
2018-08-12T22:59:17.155Z,18.10
2018-08-12T23:01:45.910Z,18.10
2018-08-12T23:04:14.630Z,18.10
2018-08-12T23:06:43.495Z,18.00
2018-08-12T23:09:13.141Z,18.00
2018-08-12T23:11:42.102Z,18.00
2018-08-12T23:14:10.821Z,17.90
2018-08-12T23:16:50.600Z,17.80
2018-08-12T23:19:19.499Z,17.80
2018-08-12T23:21:48.404Z,17.70
2018-08-12T23:24:17.088Z,17.70
2018-08-12T23:26:45.809Z,17.70
2018-08-12T23:29:21.993Z,17.60
2018-08-12T23:31:50.917Z,17.60
2018-08-12T23:34:19.564Z,17.60
2018-08-12T23:36:48.566Z,17.60
2018-08-12T23:39:17.305Z,17.50
2018-08-12T23:41:45.957Z,17.40
2018-08-12T23:44:15.034Z,17.30
2018-08-12T23:46:43.742Z,17.30
2018-08-12T23:49:12.416Z,17.20
2018-08-12T23:51:41.103Z,17.10
2018-08-12T23:54:09.834Z,17.10
2018-08-12T23:56:38.705Z,17.00
2018-08-12T23:59:07.641Z,17.00
